sensor_id;sensor_type;location;lat;lon;timestamp;pressure;altitude;pressure_sealevel;temperature;humidity
84878;BME280;75140;47.754;8.840;2024-01-30T00:00:34;98247.22;;;-0.40;99.49
84878;BME280;75140;47.754;8.840;2024-01-30T00:02:59;98248.31;;;-0.11;99.82
84878;BME280;75140;47.754;8.840;2024-01-30T00:05:24;98253.19;;;-0.05;99.35
84878;BME280;75140;47.754;8.840;2024-01-30T00:07:50;98241.81;;;-0.20;99.39
84878;BME280;75140;47.754;8.840;2024-01-30T00:10:15;98245.78;;;-0.13;99.19
84878;BME280;75140;47.754;8.840;2024-01-30T00:12:41;98240.69;;;0.02;99.64
84878;BME280;75140;47.754;8.840;2024-01-30T00:15:06;98236.88;;;0.07;98.96
84878;BME280;75140;47.754;8.840;2024-01-30T00:17:35;98232.00;;;0.01;99.06
84878;BME280;75140;47.754;8.840;2024-01-30T00:20:00;98232.16;;;-0.18;98.92
84878;BME280;75140;47.754;8.840;2024-01-30T00:22:26;98232.88;;;0.02;98.90
84878;BME280;75140;47.754;8.840;2024-01-30T00:24:51;98232.06;;;-0.16;98.09
84878;BME280;75140;47.754;8.840;2024-01-30T00:27:17;98236.59;;;-0.20;98.67
84878;BME280;75140;47.754;8.840;2024-01-30T00:29:42;98237.22;;;-0.32;98.77
84878;BME280;75140;47.754;8.840;2024-01-30T00:32:07;98245.13;;;-0.33;99.31
84878;BME280;75140;47.754;8.840;2024-01-30T00:34:32;98236.47;;;-0.34;98.69
84878;BME280;75140;47.754;8.840;2024-01-30T00:36:58;98240.38;;;-0.42;99.04
84878;BME280;75140;47.754;8.840;2024-01-30T00:39:23;98250.03;;;-0.27;99.72
84878;BME280;75140;47.754;8.840;2024-01-30T00:41:49;98238.47;;;-0.39;99.73
84878;BME280;75140;47.754;8.840;2024-01-30T00:44:14;98250.63;;;-0.22;99.77
84878;BME280;75140;47.754;8.840;2024-01-30T00:46:40;98246.09;;;-0.19;98.50
84878;BME280;75140;47.754;8.840;2024-01-30T00:49:05;98251.41;;;-0.20;98.83
84878;BME280;75140;47.754;8.840;2024-01-30T00:51:30;98250.44;;;-0.35;99.72
84878;BME280;75140;47.754;8.840;2024-01-30T00:53:56;98254.56;;;-0.31;99.54
84878;BME280;75140;47.754;8.840;2024-01-30T00:56:21;98253.91;;;-0.19;99.61
84878;BME280;75140;47.754;8.840;2024-01-30T00:58:46;98251.94;;;-0.31;98.76
84878;BME280;75140;47.754;8.840;2024-01-30T01:01:11;98251.34;;;-0.36;99.62
84878;BME280;75140;47.754;8.840;2024-01-30T01:03:37;98251.06;;;-0.47;99.30
84878;BME280;75140;47.754;8.840;2024-01-30T01:06:03;98250.28;;;-0.32;99.12
84878;BME280;75140;47.754;8.840;2024-01-30T01:08:28;98251.34;;;-0.36;98.86
84878;BME280;75140;47.754;8.840;2024-01-30T01:10:53;98251.41;;;-0.37;99.36
84878;BME280;75140;47.754;8.840;2024-01-30T01:13:19;98253.91;;;-0.51;99.42
84878;BME280;75140;47.754;8.840;2024-01-30T01:15:44;98248.09;;;-0.56;99.43
84878;BME280;75140;47.754;8.840;2024-01-30T01:18:09;98260.97;;;-0.53;99.93
84878;BME280;75140;47.754;8.840;2024-01-30T01:20:35;98254.72;;;-0.51;99.21
84878;BME280;75140;47.754;8.840;2024-01-30T01:23:00;98252.38;;;-0.55;98.94
84878;BME280;75140;47.754;8.840;2024-01-30T01:25:26;98247.31;;;-0.58;99.05
84878;BME280;75140;47.754;8.840;2024-01-30T01:27:51;98256.09;;;-0.44;99.01
84878;BME280;75140;47.754;8.840;2024-01-30T01:30:18;98242.16;;;-0.43;99.58
84878;BME280;75140;47.754;8.840;2024-01-30T01:32:48;98249.22;;;-0.45;99.22
84878;BME280;75140;47.754;8.840;2024-01-30T01:35:21;98249.50;;;-0.51;99.80
84878;BME280;75140;47.754;8.840;2024-01-30T01:37:46;98244.81;;;-0.44;99.95
84878;BME280;75140;47.754;8.840;2024-01-30T01:40:11;98245.38;;;-0.38;99.60
84878;BME280;75140;47.754;8.840;2024-01-30T01:42:37;98262.19;;;-0.43;99.59
84878;BME280;75140;47.754;8.840;2024-01-30T01:45:03;98248.72;;;-0.36;99.23
84878;BME280;75140;47.754;8.840;2024-01-30T01:47:29;98257.34;;;-0.51;98.82
84878;BME280;75140;47.754;8.840;2024-01-30T01:49:54;98248.69;;;-0.34;99.08
84878;BME280;75140;47.754;8.840;2024-01-30T01:52:19;98252.28;;;-0.37;99.16
84878;BME280;75140;47.754;8.840;2024-01-30T01:54:45;98248.22;;;-0.59;99.27
84878;BME280;75140;47.754;8.840;2024-01-30T01:57:10;98250.53;;;-0.53;99.04
84878;BME280;75140;47.754;8.840;2024-01-30T01:59:36;98248.00;;;-0.55;99.82
84878;BME280;75140;47.754;8.840;2024-01-30T02:02:02;98248.00;;;-0.55;99.87
84878;BME280;75140;47.754;8.840;2024-01-30T02:04:28;98248.00;;;-0.55;99.77
84878;BME280;75140;47.754;8.840;2024-01-30T02:06:54;98244.91;;;-0.46;99.97
84878;BME280;75140;47.754;8.840;2024-01-30T02:09:19;98252.91;;;-0.49;100.00
84878;BME280;75140;47.754;8.840;2024-01-30T02:11:44;98246.00;;;-0.50;100.00
84878;BME280;75140;47.754;8.840;2024-01-30T02:14:10;98248.63;;;-0.67;99.52
84878;BME280;75140;47.754;8.840;2024-01-30T02:16:35;98249.84;;;-0.57;99.35
84878;BME280;75140;47.754;8.840;2024-01-30T02:19:01;98248.19;;;-0.42;99.85
84878;BME280;75140;47.754;8.840;2024-01-30T02:21:27;98243.63;;;-0.54;99.73
84878;BME280;75140;47.754;8.840;2024-01-30T02:23:54;98247.81;;;-0.35;99.76
84878;BME280;75140;47.754;8.840;2024-01-30T02:26:20;98244.31;;;-0.51;99.18
84878;BME280;75140;47.754;8.840;2024-01-30T02:28:45;98248.13;;;-0.58;99.11
84878;BME280;75140;47.754;8.840;2024-01-30T02:31:10;98230.50;;;-0.53;100.00
84878;BME280;75140;47.754;8.840;2024-01-30T02:33:36;98243.50;;;-0.68;99.42
84878;BME280;75140;47.754;8.840;2024-01-30T02:36:01;98236.91;;;-0.75;99.54
84878;BME280;75140;47.754;8.840;2024-01-30T02:38:27;98239.34;;;-0.55;99.81
84878;BME280;75140;47.754;8.840;2024-01-30T02:40:54;98242.38;;;-0.47;99.94
84878;BME280;75140;47.754;8.840;2024-01-30T02:43:19;98247.50;;;-0.46;99.33
84878;BME280;75140;47.754;8.840;2024-01-30T02:45:44;98239.41;;;-0.57;99.80
84878;BME280;75140;47.754;8.840;2024-01-30T02:48:10;98247.91;;;-0.36;99.55
84878;BME280;75140;47.754;8.840;2024-01-30T02:50:35;98242.31;;;-0.46;99.53
84878;BME280;75140;47.754;8.840;2024-01-30T02:53:00;98238.63;;;-0.42;99.92
84878;BME280;75140;47.754;8.840;2024-01-30T02:55:26;98242.59;;;-0.35;99.49
84878;BME280;75140;47.754;8.840;2024-01-30T02:57:51;98240.84;;;-0.34;99.19
84878;BME280;75140;47.754;8.840;2024-01-30T03:00:17;98238.31;;;-0.53;99.15
84878;BME280;75140;47.754;8.840;2024-01-30T03:02:42;98240.16;;;-0.38;99.89
84878;BME280;75140;47.754;8.840;2024-01-30T03:05:07;98232.19;;;-0.52;98.95
84878;BME280;75140;47.754;8.840;2024-01-30T03:07:33;98235.34;;;-0.45;99.62
84878;BME280;75140;47.754;8.840;2024-01-30T03:09:58;98235.09;;;-0.41;99.09
84878;BME280;75140;47.754;8.840;2024-01-30T03:12:24;98234.03;;;-0.54;98.63
84878;BME280;75140;47.754;8.840;2024-01-30T03:14:49;98232.03;;;-0.49;99.28
84878;BME280;75140;47.754;8.840;2024-01-30T03:17:15;98235.88;;;-0.56;98.90
84878;BME280;75140;47.754;8.840;2024-01-30T03:19:40;98232.94;;;-0.33;98.94
84878;BME280;75140;47.754;8.840;2024-01-30T03:22:06;98232.03;;;-0.49;98.65
84878;BME280;75140;47.754;8.840;2024-01-30T03:24:31;98233.75;;;-0.48;99.56
84878;BME280;75140;47.754;8.840;2024-01-30T03:26:56;98232.56;;;-0.42;99.15
84878;BME280;75140;47.754;8.840;2024-01-30T03:29:22;98234.19;;;-0.40;98.56
84878;BME280;75140;47.754;8.840;2024-01-30T03:31:47;98235.50;;;-0.48;98.53
84878;BME280;75140;47.754;8.840;2024-01-30T03:34:12;98232.63;;;-0.44;99.28
84878;BME280;75140;47.754;8.840;2024-01-30T03:36:38;98233.31;;;-0.40;98.47
84878;BME280;75140;47.754;8.840;2024-01-30T03:39:03;98244.47;;;-0.54;98.22
84878;BME280;75140;47.754;8.840;2024-01-30T03:41:29;98232.50;;;-0.58;98.54
84878;BME280;75140;47.754;8.840;2024-01-30T03:43:55;98236.03;;;-0.76;98.68
84878;BME280;75140;47.754;8.840;2024-01-30T03:46:20;98237.00;;;-0.61;98.57
84878;BME280;75140;47.754;8.840;2024-01-30T03:48:45;98229.59;;;-0.69;98.64
84878;BME280;75140;47.754;8.840;2024-01-30T03:51:11;98235.34;;;-0.62;99.05
84878;BME280;75140;47.754;8.840;2024-01-30T03:53:41;98229.88;;;-0.58;98.48
84878;BME280;75140;47.754;8.840;2024-01-30T03:56:07;98233.09;;;-0.70;98.37
84878;BME280;75140;47.754;8.840;2024-01-30T03:58:33;98242.31;;;-0.80;98.86
84878;BME280;75140;47.754;8.840;2024-01-30T04:00:58;98238.28;;;-0.68;98.67
84878;BME280;75140;47.754;8.840;2024-01-30T04:03:23;98236.97;;;-0.60;99.18
84878;BME280;75140;47.754;8.840;2024-01-30T04:05:52;98239.09;;;-0.68;98.33
84878;BME280;75140;47.754;8.840;2024-01-30T04:08:17;98235.81;;;-0.71;98.37
84878;BME280;75140;47.754;8.840;2024-01-30T04:10:43;98229.22;;;-0.78;99.15
84878;BME280;75140;47.754;8.840;2024-01-30T04:13:08;98232.44;;;-0.73;99.54
84878;BME280;75140;47.754;8.840;2024-01-30T04:15:34;98239.78;;;-0.64;99.45
84878;BME280;75140;47.754;8.840;2024-01-30T04:18:00;98230.41;;;-0.34;99.63
84878;BME280;75140;47.754;8.840;2024-01-30T04:20:25;98230.28;;;-0.65;98.29
84878;BME280;75140;47.754;8.840;2024-01-30T04:22:51;98238.19;;;-0.67;99.48
84878;BME280;75140;47.754;8.840;2024-01-30T04:25:16;98231.69;;;-0.75;98.68
84878;BME280;75140;47.754;8.840;2024-01-30T04:27:42;98231.59;;;-0.74;99.17
84878;BME280;75140;47.754;8.840;2024-01-30T04:30:07;98233.97;;;-0.69;98.84
84878;BME280;75140;47.754;8.840;2024-01-30T04:32:33;98227.97;;;-0.54;98.79
84878;BME280;75140;47.754;8.840;2024-01-30T04:34:58;98226.06;;;-0.51;98.84
84878;BME280;75140;47.754;8.840;2024-01-30T04:37:24;98239.41;;;-0.57;99.42
84878;BME280;75140;47.754;8.840;2024-01-30T04:39:50;98234.03;;;-0.54;99.30
84878;BME280;75140;47.754;8.840;2024-01-30T04:42:15;98220.69;;;-0.48;98.70
84878;BME280;75140;47.754;8.840;2024-01-30T04:44:40;98230.56;;;-0.54;98.82
84878;BME280;75140;47.754;8.840;2024-01-30T04:47:06;98229.97;;;-0.59;98.56
84878;BME280;75140;47.754;8.840;2024-01-30T04:49:34;98232.13;;;-0.67;98.48
84878;BME280;75140;47.754;8.840;2024-01-30T04:51:59;98240.81;;;-0.67;99.27
84878;BME280;75140;47.754;8.840;2024-01-30T04:54:25;98237.72;;;-0.58;98.79
84878;BME280;75140;47.754;8.840;2024-01-30T04:56:50;98236.50;;;-0.68;98.09
84878;BME280;75140;47.754;8.840;2024-01-30T04:59:16;98234.97;;;-0.72;98.80
84878;BME280;75140;47.754;8.840;2024-01-30T05:01:41;98237.44;;;-0.69;98.69
84878;BME280;75140;47.754;8.840;2024-01-30T05:04:10;98240.72;;;-0.82;98.13
84878;BME280;75140;47.754;8.840;2024-01-30T05:06:36;98223.63;;;-0.88;99.01
84878;BME280;75140;47.754;8.840;2024-01-30T05:09:02;98235.06;;;-0.90;98.80
84878;BME280;75140;47.754;8.840;2024-01-30T05:11:29;98236.34;;;-0.99;98.45
84878;BME280;75140;47.754;8.840;2024-01-30T05:13:54;98241.25;;;-0.76;99.30
84878;BME280;75140;47.754;8.840;2024-01-30T05:16:20;98236.88;;;-0.92;98.39
84878;BME280;75140;47.754;8.840;2024-01-30T05:18:45;98240.25;;;-0.90;98.92
84878;BME280;75140;47.754;8.840;2024-01-30T05:21:10;98234.50;;;-0.97;99.34
84878;BME280;75140;47.754;8.840;2024-01-30T05:23:36;98230.13;;;-0.96;99.47
84878;BME280;75140;47.754;8.840;2024-01-30T05:26:02;98232.91;;;-0.99;99.09
84878;BME280;75140;47.754;8.840;2024-01-30T05:28:29;98240.81;;;-0.84;98.55
84878;BME280;75140;47.754;8.840;2024-01-30T05:30:55;98249.59;;;-0.86;99.28
84878;BME280;75140;47.754;8.840;2024-01-30T05:33:20;98253.22;;;-0.89;99.68
84878;BME280;75140;47.754;8.840;2024-01-30T05:35:45;98259.41;;;-0.91;99.55
84878;BME280;75140;47.754;8.840;2024-01-30T05:38:11;98246.84;;;-0.83;98.85
84878;BME280;75140;47.754;8.840;2024-01-30T05:40:37;98249.75;;;-0.89;99.38
84878;BME280;75140;47.754;8.840;2024-01-30T05:43:03;98245.25;;;-0.69;99.10
84878;BME280;75140;47.754;8.840;2024-01-30T05:45:28;98237.59;;;-0.89;98.96
84878;BME280;75140;47.754;8.840;2024-01-30T05:47:54;98248.44;;;-0.98;99.52
84878;BME280;75140;47.754;8.840;2024-01-30T05:50:19;98244.03;;;-0.79;99.34
84878;BME280;75140;47.754;8.840;2024-01-30T05:52:45;98251.84;;;-0.79;98.84
84878;BME280;75140;47.754;8.840;2024-01-30T05:55:11;98255.97;;;-0.75;98.92
84878;BME280;75140;47.754;8.840;2024-01-30T05:57:37;98256.28;;;-0.81;97.81
84878;BME280;75140;47.754;8.840;2024-01-30T06:00:04;98257.50;;;-0.88;98.76
84878;BME280;75140;47.754;8.840;2024-01-30T06:02:30;98252.75;;;-0.80;98.66
84878;BME280;75140;47.754;8.840;2024-01-30T06:04:55;98253.66;;;-0.81;98.81
84878;BME280;75140;47.754;8.840;2024-01-30T06:07:21;98254.19;;;-0.74;98.81
84878;BME280;75140;47.754;8.840;2024-01-30T06:09:47;98255.28;;;-0.61;98.86
84878;BME280;75140;47.754;8.840;2024-01-30T06:12:12;98264.34;;;-0.85;98.60
84878;BME280;75140;47.754;8.840;2024-01-30T06:14:38;98264.25;;;-1.01;98.86
84878;BME280;75140;47.754;8.840;2024-01-30T06:17:03;98267.03;;;-0.87;99.86
84878;BME280;75140;47.754;8.840;2024-01-30T06:19:30;98257.66;;;-0.74;99.97
84878;BME280;75140;47.754;8.840;2024-01-30T06:21:55;98268.88;;;-0.72;98.79
84878;BME280;75140;47.754;8.840;2024-01-30T06:24:20;98265.16;;;-0.68;99.09
84878;BME280;75140;47.754;8.840;2024-01-30T06:26:46;98266.44;;;-0.93;98.33
84878;BME280;75140;47.754;8.840;2024-01-30T06:29:11;98269.44;;;-1.01;98.51
84878;BME280;75140;47.754;8.840;2024-01-30T06:31:43;98259.25;;;-0.88;99.93
84878;BME280;75140;47.754;8.840;2024-01-30T06:34:09;98256.66;;;-0.71;98.63
84878;BME280;75140;47.754;8.840;2024-01-30T06:36:36;98266.63;;;-0.62;98.34
84878;BME280;75140;47.754;8.840;2024-01-30T06:39:02;98265.72;;;-0.78;98.54
84878;BME280;75140;47.754;8.840;2024-01-30T06:41:28;98271.13;;;-0.83;98.11
84878;BME280;75140;47.754;8.840;2024-01-30T06:43:53;98275.56;;;-0.85;98.33
84878;BME280;75140;47.754;8.840;2024-01-30T06:46:18;98279.75;;;-0.64;99.11
84878;BME280;75140;47.754;8.840;2024-01-30T06:48:44;98275.50;;;-0.66;98.17
84878;BME280;75140;47.754;8.840;2024-01-30T06:51:11;98276.19;;;-0.80;98.45
84878;BME280;75140;47.754;8.840;2024-01-30T06:53:37;98280.06;;;-0.87;98.82
84878;BME280;75140;47.754;8.840;2024-01-30T06:56:02;98273.75;;;-0.83;98.17
84878;BME280;75140;47.754;8.840;2024-01-30T06:58:27;98273.59;;;-0.80;98.35
84878;BME280;75140;47.754;8.840;2024-01-30T07:00:54;98276.19;;;-0.80;98.42
84878;BME280;75140;47.754;8.840;2024-01-30T07:03:19;98280.66;;;-0.82;98.77
84878;BME280;75140;47.754;8.840;2024-01-30T07:05:44;98281.28;;;-0.77;98.43
84878;BME280;75140;47.754;8.840;2024-01-30T07:08:10;98278.56;;;-0.92;97.84
84878;BME280;75140;47.754;8.840;2024-01-30T07:10:35;98282.78;;;-0.90;98.10
84878;BME280;75140;47.754;8.840;2024-01-30T07:13:01;98284.00;;;-0.80;98.15
84878;BME280;75140;47.754;8.840;2024-01-30T07:15:26;98282.50;;;-0.84;98.21
84878;BME280;75140;47.754;8.840;2024-01-30T07:17:51;98287.47;;;-0.79;99.14
84878;BME280;75140;47.754;8.840;2024-01-30T07:20:17;98284.38;;;-1.04;98.72
84878;BME280;75140;47.754;8.840;2024-01-30T07:22:45;98286.00;;;-0.85;98.39
84878;BME280;75140;47.754;8.840;2024-01-30T07:25:10;98284.59;;;-0.92;98.57
84878;BME280;75140;47.754;8.840;2024-01-30T07:27:36;98281.38;;;-0.97;97.98
84878;BME280;75140;47.754;8.840;2024-01-30T07:30:02;98292.66;;;-0.96;97.59
84878;BME280;75140;47.754;8.840;2024-01-30T07:32:27;98306.06;;;-1.04;98.47
84878;BME280;75140;47.754;8.840;2024-01-30T07:34:52;98307.41;;;-0.95;98.34
84878;BME280;75140;47.754;8.840;2024-01-30T07:37:18;98298.41;;;-0.90;97.61
84878;BME280;75140;47.754;8.840;2024-01-30T07:39:44;98302.50;;;-0.84;97.34
84878;BME280;75140;47.754;8.840;2024-01-30T07:42:10;98301.88;;;-0.89;97.55
84878;BME280;75140;47.754;8.840;2024-01-30T07:44:35;98312.19;;;-1.05;97.60
84878;BME280;75140;47.754;8.840;2024-01-30T07:47:01;98310.66;;;-0.92;97.59
84878;BME280;75140;47.754;8.840;2024-01-30T07:49:28;98310.22;;;-0.83;97.07
84878;BME280;75140;47.754;8.840;2024-01-30T07:51:53;98310.34;;;-1.03;96.72
84878;BME280;75140;47.754;8.840;2024-01-30T07:54:18;98310.00;;;-0.95;97.54
84878;BME280;75140;47.754;8.840;2024-01-30T07:56:44;98314.50;;;-0.99;98.16
84878;BME280;75140;47.754;8.840;2024-01-30T07:59:10;98312.22;;;-0.88;97.87
84878;BME280;75140;47.754;8.840;2024-01-30T08:01:36;98313.13;;;-1.06;97.34
84878;BME280;75140;47.754;8.840;2024-01-30T08:04:04;98318.16;;;-1.03;97.08
84878;BME280;75140;47.754;8.840;2024-01-30T08:06:30;98301.09;;;-0.91;97.28
84878;BME280;75140;47.754;8.840;2024-01-30T08:08:55;98305.34;;;-0.89;97.69
84878;BME280;75140;47.754;8.840;2024-01-30T08:11:22;98310.53;;;-0.89;96.52
84878;BME280;75140;47.754;8.840;2024-01-30T08:13:57;98314.13;;;-0.91;97.28
84878;BME280;75140;47.754;8.840;2024-01-30T08:16:22;98304.41;;;-0.71;96.11
84878;BME280;75140;47.754;8.840;2024-01-30T08:18:48;98309.50;;;-0.51;96.24
84878;BME280;75140;47.754;8.840;2024-01-30T08:21:13;98310.81;;;-0.95;96.64
84878;BME280;75140;47.754;8.840;2024-01-30T08:23:39;98305.03;;;-0.83;95.79
84878;BME280;75140;47.754;8.840;2024-01-30T08:26:05;98319.41;;;-0.93;97.01
84878;BME280;75140;47.754;8.840;2024-01-30T08:28:31;98319.81;;;-0.66;96.62
84878;BME280;75140;47.754;8.840;2024-01-30T08:30:56;98312.84;;;-0.83;97.30
84878;BME280;75140;47.754;8.840;2024-01-30T08:33:21;98327.56;;;-0.82;96.56
84878;BME280;75140;47.754;8.840;2024-01-30T08:35:47;98317.78;;;-0.60;96.32
84878;BME280;75140;47.754;8.840;2024-01-30T08:38:12;98312.94;;;-0.50;96.21
84878;BME280;75140;47.754;8.840;2024-01-30T08:40:38;98317.91;;;-0.63;96.39
84878;BME280;75140;47.754;8.840;2024-01-30T08:43:03;98330.66;;;-0.57;96.46
84878;BME280;75140;47.754;8.840;2024-01-30T08:45:29;98317.38;;;-0.52;96.93
84878;BME280;75140;47.754;8.840;2024-01-30T08:47:55;98316.25;;;-0.64;96.54
84878;BME280;75140;47.754;8.840;2024-01-30T08:50:21;98327.28;;;-0.42;96.12
84878;BME280;75140;47.754;8.840;2024-01-30T08:52:46;98318.00;;;-0.47;96.14
84878;BME280;75140;47.754;8.840;2024-01-30T08:55:11;98322.84;;;-0.40;96.04
84878;BME280;75140;47.754;8.840;2024-01-30T08:57:37;98325.91;;;-0.49;96.41
84878;BME280;75140;47.754;8.840;2024-01-30T09:00:02;98332.06;;;-0.33;95.83
84878;BME280;75140;47.754;8.840;2024-01-30T09:02:31;98328.16;;;-0.41;95.67
84878;BME280;75140;47.754;8.840;2024-01-30T09:04:57;98324.94;;;-0.46;96.07
84878;BME280;75140;47.754;8.840;2024-01-30T09:07:22;98331.22;;;-0.33;96.18
84878;BME280;75140;47.754;8.840;2024-01-30T09:09:48;98331.13;;;-0.49;95.76
84878;BME280;75140;47.754;8.840;2024-01-30T09:12:14;98329.72;;;-0.56;96.20
84878;BME280;75140;47.754;8.840;2024-01-30T09:14:39;98329.56;;;-0.36;96.92
84878;BME280;75140;47.754;8.840;2024-01-30T09:17:06;98331.03;;;-0.30;96.63
84878;BME280;75140;47.754;8.840;2024-01-30T09:19:31;98333.88;;;-0.18;96.48
84878;BME280;75140;47.754;8.840;2024-01-30T09:21:57;98326.91;;;0.16;95.69
84878;BME280;75140;47.754;8.840;2024-01-30T09:24:22;98315.09;;;0.09;94.70
84878;BME280;75140;47.754;8.840;2024-01-30T09:26:47;98323.63;;;0.12;94.69
84878;BME280;75140;47.754;8.840;2024-01-30T09:29:13;98328.06;;;0.27;94.10
84878;BME280;75140;47.754;8.840;2024-01-30T09:31:38;98324.13;;;0.36;94.24
84878;BME280;75140;47.754;8.840;2024-01-30T09:34:03;98327.34;;;0.41;93.16
84878;BME280;75140;47.754;8.840;2024-01-30T09:36:29;98335.78;;;0.46;93.96
84878;BME280;75140;47.754;8.840;2024-01-30T09:38:54;98330.63;;;0.60;93.64
84878;BME280;75140;47.754;8.840;2024-01-30T09:41:20;98332.31;;;0.45;94.88
84878;BME280;75140;47.754;8.840;2024-01-30T09:43:48;98334.09;;;0.28;94.38
84878;BME280;75140;47.754;8.840;2024-01-30T09:46:16;98334.69;;;0.65;93.15
84878;BME280;75140;47.754;8.840;2024-01-30T09:48:42;98333.63;;;0.37;94.89
84878;BME280;75140;47.754;8.840;2024-01-30T09:51:09;98335.03;;;0.59;94.86
84878;BME280;75140;47.754;8.840;2024-01-30T09:53:36;98332.72;;;0.53;94.40
84878;BME280;75140;47.754;8.840;2024-01-30T09:56:02;98345.66;;;0.87;93.56
84878;BME280;75140;47.754;8.840;2024-01-30T09:58:28;98341.28;;;1.03;92.60
84878;BME280;75140;47.754;8.840;2024-01-30T10:00:53;98349.81;;;1.07;93.77
84878;BME280;75140;47.754;8.840;2024-01-30T10:03:19;98342.06;;;1.05;93.30
84878;BME280;75140;47.754;8.840;2024-01-30T10:05:51;98349.22;;;1.02;93.22
84878;BME280;75140;47.754;8.840;2024-01-30T10:08:17;98338.69;;;1.03;93.36
84878;BME280;75140;47.754;8.840;2024-01-30T10:10:46;98336.28;;;1.14;93.95
84878;BME280;75140;47.754;8.840;2024-01-30T10:13:12;98335.53;;;1.12;93.63
84878;BME280;75140;47.754;8.840;2024-01-30T10:15:37;98333.09;;;0.94;93.03
84878;BME280;75140;47.754;8.840;2024-01-30T10:18:04;98337.91;;;1.01;94.22
84878;BME280;75140;47.754;8.840;2024-01-30T10:20:32;98335.00;;;1.37;93.28
84878;BME280;75140;47.754;8.840;2024-01-30T10:22:57;98339.94;;;1.28;93.78
84878;BME280;75140;47.754;8.840;2024-01-30T10:25:22;98342.94;;;1.36;93.40
84878;BME280;75140;47.754;8.840;2024-01-30T10:27:55;98337.00;;;1.48;92.98
84878;BME280;75140;47.754;8.840;2024-01-30T10:30:24;98339.06;;;1.43;92.97
84878;BME280;75140;47.754;8.840;2024-01-30T10:32:49;98337.88;;;1.33;93.84
84878;BME280;75140;47.754;8.840;2024-01-30T10:35:15;98340.59;;;1.31;94.01
84878;BME280;75140;47.754;8.840;2024-01-30T10:37:43;98334.25;;;1.35;93.49
84878;BME280;75140;47.754;8.840;2024-01-30T10:40:12;98326.88;;;1.42;94.29
84878;BME280;75140;47.754;8.840;2024-01-30T10:42:42;98328.97;;;1.51;93.48
84878;BME280;75140;47.754;8.840;2024-01-30T10:45:11;98333.03;;;1.56;92.53
84878;BME280;75140;47.754;8.840;2024-01-30T10:47:50;98324.56;;;1.81;92.26
84878;BME280;75140;47.754;8.840;2024-01-30T10:50:15;98318.16;;;1.86;92.15
84878;BME280;75140;47.754;8.840;2024-01-30T10:52:42;98309.47;;;2.00;90.27
84878;BME280;75140;47.754;8.840;2024-01-30T10:55:07;98313.34;;;1.65;92.54
84878;BME280;75140;47.754;8.840;2024-01-30T10:57:37;98313.44;;;1.77;92.41
84878;BME280;75140;47.754;8.840;2024-01-30T11:00:05;98315.19;;;2.06;92.01
84878;BME280;75140;47.754;8.840;2024-01-30T11:02:37;98309.19;;;2.04;91.99
84878;BME280;75140;47.754;8.840;2024-01-30T11:05:04;98308.84;;;2.53;90.34
84878;BME280;75140;47.754;8.840;2024-01-30T11:07:30;98310.78;;;2.49;89.86
84878;BME280;75140;47.754;8.840;2024-01-30T11:12:24;98299.09;;;2.69;88.47
84878;BME280;75140;47.754;8.840;2024-01-30T11:17:50;98284.03;;;3.25;86.53
84878;BME280;75140;47.754;8.840;2024-01-30T11:20:27;98279.75;;;3.76;85.25
84878;BME280;75140;47.754;8.840;2024-01-30T11:22:54;98280.41;;;4.17;83.67
84878;BME280;75140;47.754;8.840;2024-01-30T11:25:21;98274.09;;;3.82;85.04
84878;BME280;75140;47.754;8.840;2024-01-30T11:27:47;98279.22;;;4.09;83.80
84878;BME280;75140;47.754;8.840;2024-01-30T11:35:24;98272.34;;;3.56;86.50
84878;BME280;75140;47.754;8.840;2024-01-30T11:37:49;98261.66;;;4.34;82.95
84878;BME280;75140;47.754;8.840;2024-01-30T11:40:16;98256.41;;;4.34;84.24
84878;BME280;75140;47.754;8.840;2024-01-30T11:42:42;98253.78;;;4.47;83.55
84878;BME280;75140;47.754;8.840;2024-01-30T11:45:08;98255.81;;;3.93;85.22
84878;BME280;75140;47.754;8.840;2024-01-30T11:47:36;98258.44;;;4.06;85.70
84878;BME280;75140;47.754;8.840;2024-01-30T11:50:04;98260.44;;;4.02;87.10
84878;BME280;75140;47.754;8.840;2024-01-30T11:52:32;98251.16;;;4.34;84.83
84878;BME280;75140;47.754;8.840;2024-01-30T11:54:58;98253.81;;;4.09;87.22
84878;BME280;75140;47.754;8.840;2024-01-30T11:57:23;98244.81;;;4.62;84.13
84878;BME280;75140;47.754;8.840;2024-01-30T11:59:49;98242.09;;;4.51;86.08
84878;BME280;75140;47.754;8.840;2024-01-30T12:02:17;98246.13;;;3.94;86.92
84878;BME280;75140;47.754;8.840;2024-01-30T12:04:42;98253.91;;;3.95;88.75
84878;BME280;75140;47.754;8.840;2024-01-30T12:07:08;98252.53;;;3.77;88.59
84878;BME280;75140;47.754;8.840;2024-01-30T12:09:33;98252.13;;;3.96;88.39
84878;BME280;75140;47.754;8.840;2024-01-30T12:11:58;98253.84;;;3.97;88.86
84878;BME280;75140;47.754;8.840;2024-01-30T12:14:25;98248.63;;;4.45;86.85
84878;BME280;75140;47.754;8.840;2024-01-30T12:16:51;98240.66;;;4.34;86.17
84878;BME280;75140;47.754;8.840;2024-01-30T12:19:26;98236.88;;;4.74;86.77
84878;BME280;75140;47.754;8.840;2024-01-30T12:21:57;98231.81;;;4.35;87.03
84878;BME280;75140;47.754;8.840;2024-01-30T12:24:25;98226.47;;;4.73;85.02
84878;BME280;75140;47.754;8.840;2024-01-30T12:26:51;98226.78;;;5.05;84.66
84878;BME280;75140;47.754;8.840;2024-01-30T12:29:17;98234.28;;;5.91;81.34
84878;BME280;75140;47.754;8.840;2024-01-30T12:31:42;98236.47;;;6.41;78.54
84878;BME280;75140;47.754;8.840;2024-01-30T12:34:09;98223.50;;;5.94;79.89
84878;BME280;75140;47.754;8.840;2024-01-30T12:36:34;98220.59;;;5.86;81.63
84878;BME280;75140;47.754;8.840;2024-01-30T12:39:01;98221.72;;;5.60;82.51
84878;BME280;75140;47.754;8.840;2024-01-30T12:41:26;98220.13;;;5.23;83.44
84878;BME280;75140;47.754;8.840;2024-01-30T12:43:55;98220.28;;;4.98;84.20
84878;BME280;75140;47.754;8.840;2024-01-30T12:46:25;98211.25;;;5.36;84.12
84878;BME280;75140;47.754;8.840;2024-01-30T12:48:51;98211.81;;;5.05;84.29
84878;BME280;75140;47.754;8.840;2024-01-30T12:51:16;98212.59;;;5.53;82.59
84878;BME280;75140;47.754;8.840;2024-01-30T12:53:41;98221.06;;;5.45;83.28
84878;BME280;75140;47.754;8.840;2024-01-30T12:56:07;98211.47;;;5.10;84.49
84878;BME280;75140;47.754;8.840;2024-01-30T12:58:32;98213.31;;;5.20;83.25
84878;BME280;75140;47.754;8.840;2024-01-30T13:00:57;98213.47;;;5.30;84.36
84878;BME280;75140;47.754;8.840;2024-01-30T13:03:23;98213.59;;;6.20;81.02
84878;BME280;75140;47.754;8.840;2024-01-30T13:05:49;98209.63;;;6.14;81.00